Pays
Station

 

Conditions  météo  pour  Skagway  -  Etats-Unis    Etats-Unis

  
16 °C
    
 
 

METAR pour Skagway :

PAGY 161953Z AUTO 20017G23KT 10SM OVC090 16/08 A3003 RMK AO2 PK WND 20028/1900 SLP168 T01560083 TSNO

 

Voici le bulletin pour Skagway - Etats-Unis.
 
Le bulletin a été fait il y a 11 minutes, à 19:53 UTC .
Le vent soufflait à la vitesse de 8.7 mètres par seconde avec des rafales jusqu'à 11.8 mètres par seconde de Sud/Sud-ouest (200°).
 
La température était de 16 °C, avec un point de rosée à 8 °C.
La pression atmosphérique était de 1017 hPa.
L'humidité relative était de 59.0%.
 
Le ciel était nuageux à partir d'une hauteur de 2743 mètres
 
La visibilité globale était de 16.1 kilomètres.
 

 
 
 

Pays :   A   B   C   D   E   F   G   H   I   J   K   L   M   N   O   P   Q   R   S   T   U   V   W   Y   Z

 

Partenaires :  Info Météo avec Met'info
Météo Marine avec MeteoMarine.net
Infos Site  |  Infos Légales  |  Crédits  |  Confidentialité
Contactez-nous  |  Ajouter aux favoris
© 2013-2018 METAR - Tous droits réservés